Wooramel, Australia
Current Conditions -  °F | °C
As of 5:00 PM on Saturday 22 Nov 2014 (Local Time) from YCAR Reporting Station
Clear Clear  
Wind Chill: 75°   Ceiling: Unl
Heat Index: 75°   Visibility: NA
Dew Point: 57°   Wind: 16mph
Humidity: 53%   Direction: 220°SW
Pressure: 29.91"   Gusts: NA
Location:  25.75°S, 114.26°E
Report Text: YCAR 220900Z AUTO 22014KT //// // NCD 24/14 Q1013
Loading
Personal Weather Stations






























Interactive Weather Map New forecast layout! Learn more

10-Day Weather Forecast

Advertisements
Track Severe Weather on mobile